Time;durP1;ratioP1;P1;durP2;ratioP2;P2;SDS_P1;SDS_P2;PMS_P1;PMS_P2;Temp;Humidity;BMP_temperature;BMP_pressure;BME280_temperature;BME280_humidity;BME280_pressure;Samples;Min_cycle;Max_cycle;Signal;HPM_P1;HPM_P2
2023/01/22 09:14:34;;;;;;;56.25;34.97;;;3.90;99.90;;;;;;5111427;27;20373;-62
2023/01/22 09:17:00;;;;;;;55.25;33.53;;;3.80;99.90;;;;;;5111092;28;20050;-62
2023/01/22 09:19:26;;;;;;;51.28;32.55;;;3.90;99.90;;;;;;5111154;28;20541;-61
2023/01/22 09:21:51;;;;;;;45.17;28.45;;;4.20;99.90;;;;;;5111035;28;20019;-61
2023/01/22 09:24:17;;;;;;;40.03;26.35;;;4.40;99.90;;;;;;5111009;28;20030;-61
2023/01/22 09:26:43;;;;;;;34.58;22.48;;;4.70;99.90;;;;;;5111087;28;20050;-61
2023/01/22 09:29:08;;;;;;;34.60;22.50;;;4.90;99.90;;;;;;5110906;28;20488;-62
2023/01/22 09:31:36;;;;;;;29.27;19.95;;;5.20;99.90;;;;;;5110774;28;20019;-62
2023/01/22 09:34:02;;;;;;;57.40;33.53;;;5.30;99.90;;;;;;5111078;28;20039;-62
2023/01/22 09:36:28;;;;;;;39.58;24.83;;;5.50;99.90;;;;;;5111065;28;20051;-62
2023/01/22 09:38:54;;;;;;;39.60;25.65;;;5.40;99.90;;;;;;5110768;28;20051;-61
2023/01/22 09:41:23;;;;;;;28.85;20.15;;;5.30;99.90;;;;;;5110752;28;20028;-62
2023/01/22 09:44:15;;;;;;;28.35;18.92;;;5.40;99.90;;;;;;5110597;28;20023;-62
2023/01/22 09:46:48;;;;;;;39.53;26.40;;;5.60;99.90;;;;;;5106324;28;20036;-62
2023/01/22 09:49:19;;;;;;;25.15;18.15;;;5.70;99.90;;;;;;5110545;28;20044;-62
2023/01/22 09:51:56;;;;;;;27.08;20.05;;;5.80;99.90;;;;;;5110587;28;20024;-61
2023/01/22 09:54:23;;;;;;;20.17;15.77;;;5.80;99.90;;;;;;5110394;28;20039;-61
2023/01/22 09:56:52;;;;;;;18.52;14.75;;;5.80;99.90;;;;;;5110459;28;20043;-61
2023/01/22 09:59:51;;;;;;;16.00;12.98;;;5.80;99.90;;;;;;5110247;28;20470;-61
2023/01/22 10:02:37;;;;;;;21.65;14.75;;;5.90;99.90;;;;;;5110663;28;20023;-62
2023/01/22 10:05:38;;;;;;;19.13;13.73;;;5.60;99.90;;;;;;5110224;28;20021;-61
2023/01/22 10:08:15;;;;;;;16.60;12.18;;;5.50;99.90;;;;;;5104952;28;20036;-62
2023/01/22 10:10:41;;;;;;;16.48;12.73;;;5.60;99.90;;;;;;5110135;28;20093;-62
2023/01/22 10:13:31;;;;;;;19.73;14.13;;;5.70;99.90;;;;;;5109919;28;20078;-62
2023/01/22 10:15:57;;;;;;;17.90;13.07;;;5.80;99.90;;;;;;5109939;28;20071;-62
2023/01/22 10:19:01;;;;;;;21.63;15.23;;;5.80;99.90;;;;;;5110047;28;20024;-62
2023/01/22 10:21:30;;;;;;;18.42;13.38;;;5.90;99.90;;;;;;5110069;28;20038;-62
2023/01/22 10:23:57;;;;;;;14.85;11.00;;;5.80;99.90;;;;;;5107432;28;20508;-62
2023/01/22 10:26:40;;;;;;;13.95;11.50;;;5.70;99.90;;;;;;5096227;28;20066;-62
2023/01/22 10:29:07;;;;;;;14.98;10.73;;;5.60;99.90;;;;;;5095979;28;20096;-61
2023/01/22 10:31:39;;;;;;;10.85;9.13;;;5.70;99.90;;;;;;5096374;28;20493;-61
2023/01/22 10:34:29;;;;;;;12.85;10.10;;;5.70;99.90;;;;;;5096042;28;20115;-62
2023/01/22 10:37:00;;;;;;;22.85;13.77;;;5.70;99.90;;;;;;5096107;28;20028;-61
2023/01/22 10:39:25;;;;;;;26.08;14.48;;;5.60;99.90;;;;;;5096089;28;20025;-62
2023/01/22 10:42:00;;;;;;;25.17;15.65;;;5.70;99.90;;;;;;5095983;28;20020;-61
2023/01/22 10:44:26;;;;;;;28.70;16.95;;;5.60;99.90;;;;;;5095840;28;20026;-62
2023/01/22 10:46:54;;;;;;;25.55;15.77;;;5.60;99.90;;;;;;5095917;28;20477;-63
2023/01/22 10:49:28;;;;;;;36.70;19.55;;;5.60;99.90;;;;;;5095774;28;20026;-62
2023/01/22 10:51:59;;;;;;;29.45;17.73;;;5.50;99.90;;;;;;5095830;28;20386;-61
2023/01/22 10:54:48;;;;;;;22.85;15.23;;;5.50;99.90;;;;;;5095649;28;20056;-62
2023/01/22 10:57:25;;;;;;;22.80;13.88;;;5.60;99.90;;;;;;5095662;28;20112;-62
2023/01/22 11:00:13;;;;;;;24.00;14.27;;;5.70;99.90;;;;;;5095716;28;20381;-61
2023/01/22 11:02:47;;;;;;;24.80;14.18;;;5.80;99.90;;;;;;5095625;28;20069;-62
2023/01/22 11:05:24;;;;;;;30.10;16.85;;;5.80;99.90;;;;;;5095611;28;20024;-62
2023/01/22 11:07:54;;;;;;;27.13;15.95;;;5.80;99.90;;;;;;5095570;28;20020;-62
2023/01/22 11:10:49;;;;;;;27.42;16.40;;;5.80;99.90;;;;;;5095430;28;20042;-61
2023/01/22 11:13:17;;;;;;;20.65;13.93;;;5.80;99.90;;;;;;5094313;28;20072;-62
2023/01/22 11:15:52;;;;;;;21.55;12.77;;;5.80;99.90;;;;;;5095398;28;20101;-62
2023/01/22 11:18:36;;;;;;;19.80;12.07;;;5.90;99.90;;;;;;5095342;28;20028;-62
2023/01/22 11:21:19;;;;;;;21.08;12.75;;;5.90;99.90;;;;;;5095596;28;20430;-61
2023/01/22 11:24:02;;;;;;;30.75;17.17;;;6.00;99.90;;;;;;5095130;28;20038;-61
2023/01/22 11:26:58;;;;;;;26.17;15.43;;;5.90;99.90;;;;;;5095015;28;20153;-62
2023/01/22 11:30:03;;;;;;;24.98;15.38;;;5.80;99.90;;;;;;5095092;28;20024;-61
2023/01/22 11:33:06;;;;;;;26.13;16.02;;;5.90;99.90;;;;;;5093906;28;20427;-62
2023/01/22 11:35:35;;;;;;;34.30;22.27;;;5.90;99.90;;;;;;5094465;28;20042;-62
2023/01/22 11:38:24;;;;;;;36.65;24.13;;;5.90;99.90;;;;;;5094391;28;20408;-62
2023/01/22 11:40:53;;;;;;;46.65;29.10;;;6.00;99.90;;;;;;5094001;28;20082;-62
2023/01/22 11:43:37;;;;;;;40.60;25.60;;;6.00;99.90;;;;;;5094811;28;20020;-63
2023/01/22 11:46:23;;;;;;;;;;;5.90;99.90;;;;;;5095132;28;20500;-63
2023/01/22 11:49:18;;;;;;;29.08;20.33;;;5.70;99.90;;;;;;5094723;28;19908;-62
2023/01/22 11:51:46;;;;;;;43.50;30.90;;;5.60;99.90;;;;;;5093999;28;20115;-61
2023/01/22 11:54:21;;;;;;;36.00;24.30;;;5.60;99.90;;;;;;5094555;28;20031;-61
2023/01/22 11:57:14;;;;;;;36.58;25.00;;;5.40;99.90;;;;;;5094429;28;20074;-62
2023/01/22 12:00:02;;;;;;;44.70;29.65;;;5.20;99.90;;;;;;5094737;28;20056;-61
2023/01/22 12:02:36;;;;;;;32.08;22.13;;;5.10;99.90;;;;;;5094391;28;20020;-62
2023/01/22 12:05:18;;;;;;;35.17;22.95;;;5.30;99.90;;;;;;5094343;28;20491;-61
2023/01/22 12:07:57;;;;;;;34.70;23.02;;;5.30;99.90;;;;;;5094390;28;20020;-61
2023/01/22 12:10:32;;;;;;;30.17;20.08;;;5.40;99.90;;;;;;5094129;28;20016;-62
2023/01/22 12:13:07;;;;;;;37.47;24.58;;;5.40;99.90;;;;;;5093739;28;20044;-61
2023/01/22 12:15:51;;;;;;;30.27;21.58;;;5.40;99.90;;;;;;5094106;28;20024;-62
2023/01/22 12:18:47;;;;;;;26.17;18.98;;;5.50;99.90;;;;;;5094146;28;20020;-62
2023/01/22 12:21:46;;;;;;;25.65;17.25;;;5.50;99.90;;;;;;5094410;28;20024;-62
2023/01/22 12:24:23;;;;;;;24.67;16.00;;;5.60;99.90;;;;;;5094187;28;20024;-62
2023/01/22 12:27:06;;;;;;;24.95;15.90;;;5.60;99.90;;;;;;5093994;28;20465;-61
2023/01/22 12:30:00;;;;;;;24.58;16.73;;;5.70;99.90;;;;;;5093989;28;20069;-62
2023/01/22 12:32:29;;;;;;;24.02;17.00;;;5.80;99.90;;;;;;5093351;28;20572;-61
2023/01/22 12:35:04;;;;;;;26.42;17.70;;;5.70;99.90;;;;;;5094239;28;20047;-62
2023/01/22 12:37:45;;;;;;;20.50;14.52;;;5.80;99.90;;;;;;5093753;28;20020;-62
2023/01/22 12:40:29;;;;;;;28.30;17.52;;;5.70;99.90;;;;;;5093596;28;20024;-62
2023/01/22 12:42:57;;;;;;;27.70;16.73;;;5.70;99.90;;;;;;5093625;28;20432;-62
2023/01/22 12:45:45;;;;;;;25.83;17.65;;;5.70;99.90;;;;;;5093828;28;20020;-61
2023/01/22 12:49:08;;;;;;;25.95;16.42;;;5.70;99.90;;;;;;5093394;28;20024;-61
2023/01/22 12:51:39;;;;;;;24.25;15.38;;;5.70;99.90;;;;;;5091574;28;20434;-62
2023/01/22 12:54:09;;;;;;;30.10;18.52;;;5.70;99.90;;;;;;5091355;28;20446;-62
2023/01/22 12:56:35;;;;;;;28.88;18.27;;;5.60;99.90;;;;;;5092402;28;20053;-62
2023/01/22 12:59:01;;;;;;;32.03;19.27;;;5.60;99.90;;;;;;5093556;28;20516;-62
2023/01/22 13:01:34;;;;;;;28.98;17.92;;;5.70;99.90;;;;;;5093485;28;20025;-62
2023/01/22 13:04:04;;;;;;;35.22;22.80;;;5.70;99.90;;;;;;5093465;28;20038;-62
2023/01/22 13:06:37;;;;;;;32.95;20.88;;;5.70;99.90;;;;;;5093591;28;20020;-61
2023/01/22 13:09:04;;;;;;;45.23;26.63;;;5.70;99.90;;;;;;5093490;28;20020;-61
2023/01/22 13:11:40;;;;;;;36.70;22.30;;;5.50;99.90;;;;;;5092830;28;20335;-61
2023/01/22 13:14:18;;;;;;;33.17;19.13;;;5.30;99.90;;;;;;5092849;28;20054;-62
2023/01/22 13:16:58;;;;;;;36.53;21.65;;;5.30;99.90;;;;;;5093160;28;20020;-62
2023/01/22 13:19:35;;;;;;;42.22;23.80;;;5.40;99.90;;;;;;5093121;28;20027;-61
2023/01/22 13:22:01;;;;;;;42.47;23.65;;;5.40;99.90;;;;;;5093305;28;20020;-62
2023/01/22 13:24:27;;;;;;;47.50;25.38;;;5.20;99.90;;;;;;5093143;28;20020;-63
2023/01/22 13:27:00;;;;;;;41.63;24.40;;;5.20;99.90;;;;;;5093041;28;20033;-62
2023/01/22 13:29:32;;;;;;;45.13;24.30;;;5.10;99.90;;;;;;5093254;28;20017;-62
2023/01/22 13:32:19;;;;;;;42.13;23.65;;;5.10;99.90;;;;;;5091188;28;20077;-62
2023/01/22 13:34:45;;;;;;;43.65;25.27;;;4.90;99.90;;;;;;5091056;28;20028;-62
